sensor_id;sensor_type;location;lat;lon;timestamp;pressure;altitude;pressure_sealevel;temperature;humidity
740;BME280;354;42.694;23.336;2023-05-03T03:25:53;95573.72;;;12.59;73.25
740;BME280;354;42.694;23.336;2023-05-03T03:28:18;95566.03;;;12.51;73.18
740;BME280;354;42.694;23.336;2023-05-03T03:30:44;95571.94;;;12.53;74.72
740;BME280;354;42.694;23.336;2023-05-03T03:33:10;95581.81;;;12.57;75.05
740;BME280;354;42.694;23.336;2023-05-03T03:35:36;95585.50;;;12.56;74.22
740;BME280;354;42.694;23.336;2023-05-03T03:38:02;95590.75;;;12.56;73.52
740;BME280;354;42.694;23.336;2023-05-03T03:40:27;95579.69;;;12.48;73.54
740;BME280;354;42.694;23.336;2023-05-03T03:42:53;95575.00;;;12.50;74.64
740;BME280;354;42.694;23.336;2023-05-03T03:45:18;95601.06;;;12.64;75.64
740;BME280;354;42.694;23.336;2023-05-03T03:47:44;95599.03;;;12.66;75.32
740;BME280;354;42.694;23.336;2023-05-03T03:50:09;95602.91;;;12.64;75.16
740;BME280;354;42.694;23.336;2023-05-03T03:52:35;95605.09;;;12.67;76.80
740;BME280;354;42.694;23.336;2023-05-03T03:55:00;95597.19;;;12.67;73.99
740;BME280;354;42.694;23.336;2023-05-03T03:57:26;95616.03;;;12.71;73.38
740;BME280;354;42.694;23.336;2023-05-03T03:59:57;95619.22;;;12.79;75.07
740;BME280;354;42.694;23.336;2023-05-03T04:02:23;95622.06;;;12.78;73.71
740;BME280;354;42.694;23.336;2023-05-03T04:04:49;95609.47;;;12.80;75.10
740;BME280;354;42.694;23.336;2023-05-03T04:07:14;95622.41;;;12.88;74.05
740;BME280;354;42.694;23.336;2023-05-03T04:09:39;95612.09;;;12.80;75.89
740;BME280;354;42.694;23.336;2023-05-03T04:12:05;95628.72;;;12.87;73.55
740;BME280;354;42.694;23.336;2023-05-03T04:14:30;95629.31;;;12.89;72.72
740;BME280;354;42.694;23.336;2023-05-03T04:16:55;95621.22;;;12.84;72.28
740;BME280;354;42.694;23.336;2023-05-03T04:19:21;95552.16;;;12.37;71.26
740;BME280;354;42.694;23.336;2023-05-03T04:21:46;95621.44;;;12.82;72.66
740;BME280;354;42.694;23.336;2023-05-03T04:24:15;95634.00;;;12.87;72.03
740;BME280;354;42.694;23.336;2023-05-03T04:26:41;95631.56;;;12.85;71.91
740;BME280;354;42.694;23.336;2023-05-03T04:29:07;95639.28;;;12.87;73.20
740;BME280;354;42.694;23.336;2023-05-03T04:31:32;95647.56;;;12.90;71.92
740;BME280;354;42.694;23.336;2023-05-03T04:33:57;95635.66;;;12.81;73.51
740;BME280;354;42.694;23.336;2023-05-03T04:36:23;95656.63;;;13.01;73.39
740;BME280;354;42.694;23.336;2023-05-03T04:38:54;95665.31;;;13.08;74.64
740;BME280;354;42.694;23.336;2023-05-03T04:41:20;95644.66;;;12.99;75.36
740;BME280;354;42.694;23.336;2023-05-03T04:43:45;95667.56;;;13.05;78.55
740;BME280;354;42.694;23.336;2023-05-03T04:46:11;95674.09;;;13.02;80.78
740;BME280;354;42.694;23.336;2023-05-03T04:48:36;95686.09;;;12.98;84.97
740;BME280;354;42.694;23.336;2023-05-03T04:51:02;95678.88;;;12.87;86.32
740;BME280;354;42.694;23.336;2023-05-03T04:53:27;95692.25;;;12.92;83.39
740;BME280;354;42.694;23.336;2023-05-03T04:55:53;95692.25;;;12.92;85.26
740;BME280;354;42.694;23.336;2023-05-03T04:58:18;95694.88;;;12.92;84.82
740;BME280;354;42.694;23.336;2023-05-03T05:00:44;95693.25;;;12.91;84.97
740;BME280;354;42.694;23.336;2023-05-03T05:03:10;95711.06;;;13.02;91.42
740;BME280;354;42.694;23.336;2023-05-03T05:05:35;95705.81;;;12.96;94.04
740;BME280;354;42.694;23.336;2023-05-03T05:08:01;95713.38;;;12.92;92.89
740;BME280;354;42.694;23.336;2023-05-03T05:10:26;95717.00;;;12.91;98.73
740;BME280;354;42.694;23.336;2023-05-03T05:12:52;95718.47;;;12.87;95.74
740;BME280;354;42.694;23.336;2023-05-03T05:15:17;95702.84;;;12.54;100.00
740;BME280;354;42.694;23.336;2023-05-03T05:17:43;95699.63;;;12.45;100.00
740;BME280;354;42.694;23.336;2023-05-03T05:20:09;95716.91;;;12.34;100.00
740;BME280;354;42.694;23.336;2023-05-03T05:22:39;95721.75;;;12.44;100.00
740;BME280;354;42.694;23.336;2023-05-03T05:25:06;95718.38;;;12.69;100.00
740;BME280;354;42.694;23.336;2023-05-03T05:27:32;95722.66;;;12.70;100.00
740;BME280;354;42.694;23.336;2023-05-03T05:29:57;95711.88;;;12.71;100.00
740;BME280;354;42.694;23.336;2023-05-03T05:32:23;95729.38;;;12.97;100.00
740;BME280;354;42.694;23.336;2023-05-03T05:34:48;95727.63;;;13.16;100.00
740;BME280;354;42.694;23.336;2023-05-03T05:37:21;95725.50;;;13.31;100.00
740;BME280;354;42.694;23.336;2023-05-03T05:39:47;95724.75;;;13.49;100.00
740;BME280;354;42.694;23.336;2023-05-03T05:42:12;95722.16;;;13.86;100.00
740;BME280;354;42.694;23.336;2023-05-03T05:44:38;95718.69;;;14.22;100.00
740;BME280;354;42.694;23.336;2023-05-03T05:47:03;95723.31;;;14.63;98.08
740;BME280;354;42.694;23.336;2023-05-03T05:49:29;95720.06;;;14.80;90.10
740;BME280;354;42.694;23.336;2023-05-03T05:51:54;95712.38;;;14.90;88.42
740;BME280;354;42.694;23.336;2023-05-03T05:54:20;95711.78;;;14.88;89.45
740;BME280;354;42.694;23.336;2023-05-03T05:56:46;95702.59;;;14.90;86.41
740;BME280;354;42.694;23.336;2023-05-03T05:59:11;95713.44;;;15.00;85.47
740;BME280;354;42.694;23.336;2023-05-03T06:01:36;95692.78;;;14.91;85.25
740;BME280;354;42.694;23.336;2023-05-03T06:04:05;95704.72;;;14.82;87.44
740;BME280;354;42.694;23.336;2023-05-03T06:06:31;95715.00;;;14.60;84.92
740;BME280;354;42.694;23.336;2023-05-03T06:08:56;95708.19;;;14.34;87.07
740;BME280;354;42.694;23.336;2023-05-03T06:11:22;95714.00;;;14.24;90.42
740;BME280;354;42.694;23.336;2023-05-03T06:13:47;95701.88;;;14.16;96.72
740;BME280;354;42.694;23.336;2023-05-03T06:16:12;95716.28;;;14.20;93.25
740;BME280;354;42.694;23.336;2023-05-03T06:18:38;95713.34;;;14.10;93.84
740;BME280;354;42.694;23.336;2023-05-03T06:21:03;95717.16;;;14.33;97.04
740;BME280;354;42.694;23.336;2023-05-03T06:23:29;95709.66;;;14.48;95.09
740;BME280;354;42.694;23.336;2023-05-03T06:25:54;95712.03;;;14.56;95.30
740;BME280;354;42.694;23.336;2023-05-03T06:28:20;95713.44;;;14.70;96.30
740;BME280;354;42.694;23.336;2023-05-03T06:30:48;95715.06;;;14.71;94.78
740;BME280;354;42.694;23.336;2023-05-03T06:33:14;95708.25;;;14.64;97.19
740;BME280;354;42.694;23.336;2023-05-03T06:35:40;95704.69;;;15.00;100.00
740;BME280;354;42.694;23.336;2023-05-03T06:38:07;95694.28;;;14.98;97.53
740;BME280;354;42.694;23.336;2023-05-03T06:40:33;95706.00;;;15.33;93.32
740;BME280;354;42.694;23.336;2023-05-03T06:42:58;95698.88;;;15.57;87.98
740;BME280;354;42.694;23.336;2023-05-03T06:45:23;95688.59;;;15.60;89.71
740;BME280;354;42.694;23.336;2023-05-03T06:47:49;95694.50;;;15.86;85.45
740;BME280;354;42.694;23.336;2023-05-03T06:50:14;95688.88;;;15.94;84.01
740;BME280;354;42.694;23.336;2023-05-03T06:52:40;95681.22;;;15.97;82.18
740;BME280;354;42.694;23.336;2023-05-03T06:55:06;95683.19;;;15.90;83.18
740;BME280;354;42.694;23.336;2023-05-03T06:57:31;95673.16;;;15.92;82.38
740;BME280;354;42.694;23.336;2023-05-03T06:59:57;95663.25;;;15.99;80.39
740;BME280;354;42.694;23.336;2023-05-03T07:02:23;95657.84;;;15.83;79.75
740;BME280;354;42.694;23.336;2023-05-03T07:04:50;95666.09;;;15.98;80.30
740;BME280;354;42.694;23.336;2023-05-03T07:07:15;95667.03;;;15.92;78.23
740;BME280;354;42.694;23.336;2023-05-03T07:09:40;95655.41;;;15.81;78.38
740;BME280;354;42.694;23.336;2023-05-03T07:12:06;95641.00;;;15.65;80.36
740;BME280;354;42.694;23.336;2023-05-03T07:14:31;95669.25;;;15.83;79.26
740;BME280;354;42.694;23.336;2023-05-03T07:16:57;95667.31;;;15.78;79.85
740;BME280;354;42.694;23.336;2023-05-03T07:19:22;95686.00;;;15.72;82.90
740;BME280;354;42.694;23.336;2023-05-03T07:21:47;95679.06;;;15.71;79.05
740;BME280;354;42.694;23.336;2023-05-03T07:24:13;95678.03;;;15.72;79.48
740;BME280;354;42.694;23.336;2023-05-03T07:26:38;95670.19;;;15.77;78.55
740;BME280;354;42.694;23.336;2023-05-03T07:29:04;95668.19;;;15.96;79.59
740;BME280;354;42.694;23.336;2023-05-03T07:31:30;95677.34;;;15.88;78.50
740;BME280;354;42.694;23.336;2023-05-03T07:33:56;95674.78;;;15.81;78.88
740;BME280;354;42.694;23.336;2023-05-03T07:36:21;95687.69;;;16.01;81.38
740;BME280;354;42.694;23.336;2023-05-03T07:38:47;95670.38;;;16.11;79.22
740;BME280;354;42.694;23.336;2023-05-03T07:41:12;95681.38;;;16.31;78.31
740;BME280;354;42.694;23.336;2023-05-03T07:43:38;95670.84;;;15.96;80.17
740;BME280;354;42.694;23.336;2023-05-03T07:46:03;95662.31;;;15.82;79.64
740;BME280;354;42.694;23.336;2023-05-03T07:48:28;95664.06;;;15.53;82.59
740;BME280;354;42.694;23.336;2023-05-03T07:50:54;95665.09;;;15.87;81.45
740;BME280;354;42.694;23.336;2023-05-03T07:53:20;95663.03;;;15.77;80.35
740;BME280;354;42.694;23.336;2023-05-03T07:55:45;95671.19;;;15.88;80.73
740;BME280;354;42.694;23.336;2023-05-03T07:58:11;95681.47;;;15.96;80.96
740;BME280;354;42.694;23.336;2023-05-03T08:00:36;95673.06;;;15.99;80.41
740;BME280;354;42.694;23.336;2023-05-03T08:03:02;95674.63;;;16.12;80.81
740;BME280;354;42.694;23.336;2023-05-03T08:05:30;95668.13;;;16.19;81.06
740;BME280;354;42.694;23.336;2023-05-03T08:07:55;95682.06;;;16.38;80.27
740;BME280;354;42.694;23.336;2023-05-03T08:10:21;95686.38;;;16.56;79.56
740;BME280;354;42.694;23.336;2023-05-03T08:12:46;95679.69;;;16.53;79.38
740;BME280;354;42.694;23.336;2023-05-03T08:15:12;95679.03;;;16.75;78.85
740;BME280;354;42.694;23.336;2023-05-03T08:17:44;95685.06;;;16.70;77.65
740;BME280;354;42.694;23.336;2023-05-03T08:20:11;95682.88;;;16.96;78.44
740;BME280;354;42.694;23.336;2023-05-03T08:22:37;95654.78;;;17.00;79.39
740;BME280;354;42.694;23.336;2023-05-03T08:25:03;95681.25;;;17.62;77.44
740;BME280;354;42.694;23.336;2023-05-03T08:27:29;95681.25;;;17.79;76.33
740;BME280;354;42.694;23.336;2023-05-03T08:29:55;95680.81;;;18.04;75.87
740;BME280;354;42.694;23.336;2023-05-03T08:32:21;95683.88;;;17.96;75.05
740;BME280;354;42.694;23.336;2023-05-03T08:34:48;95685.34;;;18.25;75.23
740;BME280;354;42.694;23.336;2023-05-03T08:37:14;95689.81;;;18.90;73.28
740;BME280;354;42.694;23.336;2023-05-03T08:39:39;95693.09;;;18.98;70.01
740;BME280;354;42.694;23.336;2023-05-03T08:42:08;95691.31;;;18.81;69.71
740;BME280;354;42.694;23.336;2023-05-03T08:44:41;95679.00;;;18.53;70.38
740;BME280;354;42.694;23.336;2023-05-03T08:47:08;95659.59;;;18.09;72.99
740;BME280;354;42.694;23.336;2023-05-03T08:49:35;95675.94;;;17.62;75.39
740;BME280;354;42.694;23.336;2023-05-03T08:52:04;95674.72;;;17.02;74.97
740;BME280;354;42.694;23.336;2023-05-03T08:54:30;95672.56;;;16.82;77.65
740;BME280;354;42.694;23.336;2023-05-03T08:56:55;95670.06;;;16.76;79.20
740;BME280;354;42.694;23.336;2023-05-03T08:59:21;95691.38;;;16.81;84.27
740;BME280;354;42.694;23.336;2023-05-03T09:01:46;95679.81;;;16.47;81.05
740;BME280;354;42.694;23.336;2023-05-03T09:04:12;95678.72;;;16.31;84.25
740;BME280;354;42.694;23.336;2023-05-03T09:06:38;95681.72;;;16.63;82.47
740;BME280;354;42.694;23.336;2023-05-03T09:09:04;95666.91;;;16.79;82.04
740;BME280;354;42.694;23.336;2023-05-03T09:11:35;95668.53;;;17.30;80.17
740;BME280;354;42.694;23.336;2023-05-03T09:14:15;95675.78;;;17.52;80.01
740;BME280;354;42.694;23.336;2023-05-03T09:16:43;95647.97;;;17.76;78.13
740;BME280;354;42.694;23.336;2023-05-03T09:19:09;95653.72;;;18.56;78.60
740;BME280;354;42.694;23.336;2023-05-03T09:21:37;95657.38;;;18.99;72.31
740;BME280;354;42.694;23.336;2023-05-03T09:24:30;95650.50;;;18.76;72.12
740;BME280;354;42.694;23.336;2023-05-03T09:26:55;95652.63;;;19.06;71.76
740;BME280;354;42.694;23.336;2023-05-03T09:29:30;95655.16;;;19.22;73.45
740;BME280;354;42.694;23.336;2023-05-03T09:32:00;95649.25;;;19.53;72.93
740;BME280;354;42.694;23.336;2023-05-03T09:34:27;95643.31;;;19.08;71.49
740;BME280;354;42.694;23.336;2023-05-03T09:36:52;95645.91;;;19.30;72.14
740;BME280;354;42.694;23.336;2023-05-03T09:39:19;95639.84;;;19.82;70.68
740;BME280;354;42.694;23.336;2023-05-03T09:41:44;95618.31;;;19.99;68.57
740;BME280;354;42.694;23.336;2023-05-03T09:44:10;95625.91;;;20.27;66.80
740;BME280;354;42.694;23.336;2023-05-03T09:46:36;95597.19;;;19.45;67.39
740;BME280;354;42.694;23.336;2023-05-03T09:49:02;95591.63;;;19.14;71.38
740;BME280;354;42.694;23.336;2023-05-03T09:51:28;95613.19;;;19.50;70.16
740;BME280;354;42.694;23.336;2023-05-03T09:53:57;95614.53;;;19.90;67.93
740;BME280;354;42.694;23.336;2023-05-03T09:56:23;95622.81;;;20.76;67.47
740;BME280;354;42.694;23.336;2023-05-03T09:58:51;95617.50;;;21.12;65.00
740;BME280;354;42.694;23.336;2023-05-03T10:01:17;95614.06;;;21.32;63.33
740;BME280;354;42.694;23.336;2023-05-03T10:03:44;95612.72;;;20.99;63.53
740;BME280;354;42.694;23.336;2023-05-03T10:09:20;95605.56;;;19.59;68.51
740;BME280;354;42.694;23.336;2023-05-03T10:11:52;95609.75;;;18.80;72.34
740;BME280;354;42.694;23.336;2023-05-03T10:14:21;95613.31;;;18.64;72.53
740;BME280;354;42.694;23.336;2023-05-03T10:16:49;95603.75;;;18.95;76.41
740;BME280;354;42.694;23.336;2023-05-03T10:19:36;95611.72;;;19.27;72.70
740;BME280;354;42.694;23.336;2023-05-03T10:22:06;95602.88;;;19.59;71.94
740;BME280;354;42.694;23.336;2023-05-03T10:24:32;95595.94;;;20.15;69.21
740;BME280;354;42.694;23.336;2023-05-03T10:26:58;95579.66;;;20.12;67.80
740;BME280;354;42.694;23.336;2023-05-03T10:31:59;95573.56;;;19.64;70.51
740;BME280;354;42.694;23.336;2023-05-03T10:34:29;95565.06;;;19.72;69.17
740;BME280;354;42.694;23.336;2023-05-03T10:36:56;95564.13;;;20.09;70.58
740;BME280;354;42.694;23.336;2023-05-03T10:39:26;95553.06;;;20.63;67.11
740;BME280;354;42.694;23.336;2023-05-03T10:42:02;95557.34;;;20.99;66.00
740;BME280;354;42.694;23.336;2023-05-03T10:44:35;95567.78;;;20.96;66.39
740;BME280;354;42.694;23.336;2023-05-03T10:47:15;95558.41;;;20.88;66.31
740;BME280;354;42.694;23.336;2023-05-03T10:49:41;95565.91;;;21.32;65.24
740;BME280;354;42.694;23.336;2023-05-03T10:55:00;95548.97;;;21.52;63.77
740;BME280;354;42.694;23.336;2023-05-03T10:57:27;95568.28;;;21.23;63.85
740;BME280;354;42.694;23.336;2023-05-03T10:59:56;95572.56;;;21.24;63.95
740;BME280;354;42.694;23.336;2023-05-03T11:02:26;95568.28;;;21.18;64.21
740;BME280;354;42.694;23.336;2023-05-03T11:04:55;95568.56;;;21.17;63.72
740;BME280;354;42.694;23.336;2023-05-03T11:07:23;95537.28;;;20.97;63.89
740;BME280;354;42.694;23.336;2023-05-03T11:09:48;95554.63;;;21.10;64.10
740;BME280;354;42.694;23.336;2023-05-03T11:12:14;95547.97;;;21.02;66.51
740;BME280;354;42.694;23.336;2023-05-03T11:14:40;95546.63;;;21.35;64.19
740;BME280;354;42.694;23.336;2023-05-03T11:17:06;95543.66;;;21.42;64.58
740;BME280;354;42.694;23.336;2023-05-03T11:19:32;95531.59;;;21.54;63.49
740;BME280;354;42.694;23.336;2023-05-03T11:21:57;95535.09;;;21.40;65.31
740;BME280;354;42.694;23.336;2023-05-03T11:24:23;95530.34;;;20.86;65.67
740;BME280;354;42.694;23.336;2023-05-03T11:26:48;95551.72;;;21.11;65.21
740;BME280;354;42.694;23.336;2023-05-03T11:29:14;95531.34;;;21.20;65.09
740;BME280;354;42.694;23.336;2023-05-03T11:31:41;95531.91;;;21.27;65.04
740;BME280;354;42.694;23.336;2023-05-03T11:34:08;95532.72;;;21.18;64.88
740;BME280;354;42.694;23.336;2023-05-03T11:36:34;95538.88;;;21.18;64.71
740;BME280;354;42.694;23.336;2023-05-03T11:38:59;95526.31;;;21.03;66.02
740;BME280;354;42.694;23.336;2023-05-03T11:41:24;95542.09;;;21.05;65.39
740;BME280;354;42.694;23.336;2023-05-03T11:43:51;95535.91;;;21.20;64.97
740;BME280;354;42.694;23.336;2023-05-03T11:46:19;95536.97;;;21.29;64.56
740;BME280;354;42.694;23.336;2023-05-03T11:48:46;95530.03;;;21.43;63.99
740;BME280;354;42.694;23.336;2023-05-03T11:51:11;95499.13;;;21.76;63.01
740;BME280;354;42.694;23.336;2023-05-03T11:53:39;95524.16;;;22.01;63.44
740;BME280;354;42.694;23.336;2023-05-03T11:56:11;95514.28;;;21.96;64.57
740;BME280;354;42.694;23.336;2023-05-03T11:58:57;95519.66;;;22.41;64.20
740;BME280;354;42.694;23.336;2023-05-03T12:01:25;95512.56;;;22.60;61.32
740;BME280;354;42.694;23.336;2023-05-03T12:04:01;95510.50;;;22.47;63.95
740;BME280;354;42.694;23.336;2023-05-03T12:06:30;95521.50;;;21.96;62.30
740;BME280;354;42.694;23.336;2023-05-03T12:08:57;95507.41;;;21.75;64.12
740;BME280;354;42.694;23.336;2023-05-03T12:11:23;95490.97;;;21.22;65.82
740;BME280;354;42.694;23.336;2023-05-03T12:14:15;95504.88;;;20.32;67.91
740;BME280;354;42.694;23.336;2023-05-03T12:16:51;95512.38;;;20.25;68.60
740;BME280;354;42.694;23.336;2023-05-03T12:19:26;95518.81;;;20.44;68.05
740;BME280;354;42.694;23.336;2023-05-03T12:21:51;95511.38;;;20.72;67.56
740;BME280;354;42.694;23.336;2023-05-03T12:24:17;95514.03;;;20.62;68.41
740;BME280;354;42.694;23.336;2023-05-03T12:26:46;95511.91;;;20.69;67.42
740;BME280;354;42.694;23.336;2023-05-03T12:29:12;95499.88;;;20.61;68.12
740;BME280;354;42.694;23.336;2023-05-03T12:31:38;95518.78;;;20.29;68.31
740;BME280;354;42.694;23.336;2023-05-03T12:34:04;95505.06;;;19.85;69.65
740;BME280;354;42.694;23.336;2023-05-03T12:36:30;95509.31;;;19.81;70.51
740;BME280;354;42.694;23.336;2023-05-03T12:38:59;95518.63;;;19.68;72.08
740;BME280;354;42.694;23.336;2023-05-03T12:41:25;95512.59;;;19.40;73.03
740;BME280;354;42.694;23.336;2023-05-03T12:43:54;95496.69;;;19.08;74.86
740;BME280;354;42.694;23.336;2023-05-03T12:46:19;95494.78;;;19.04;75.75
740;BME280;354;42.694;23.336;2023-05-03T12:48:45;95497.34;;;18.88;77.16
740;BME280;354;42.694;23.336;2023-05-03T12:51:10;95491.44;;;18.81;79.54
740;BME280;354;42.694;23.336;2023-05-03T12:53:35;95489.00;;;18.75;79.33
740;BME280;354;42.694;23.336;2023-05-03T12:56:01;95485.91;;;18.61;79.96
740;BME280;354;42.694;23.336;2023-05-03T12:58:26;95485.06;;;18.23;81.63
740;BME280;354;42.694;23.336;2023-05-03T13:00:52;95497.00;;;18.15;87.05
740;BME280;354;42.694;23.336;2023-05-03T13:03:17;95492.03;;;17.97;94.87
740;BME280;354;42.694;23.336;2023-05-03T13:05:43;95484.38;;;18.06;100.00
740;BME280;354;42.694;23.336;2023-05-03T13:08:09;95486.38;;;17.94;100.00
740;BME280;354;42.694;23.336;2023-05-03T13:10:36;95494.38;;;17.72;100.00
740;BME280;354;42.694;23.336;2023-05-03T13:13:01;95496.66;;;17.85;100.00
740;BME280;354;42.694;23.336;2023-05-03T13:15:27;95479.91;;;17.84;100.00
740;BME280;354;42.694;23.336;2023-05-03T13:17:52;95486.16;;;17.73;100.00
740;BME280;354;42.694;23.336;2023-05-03T13:20:18;95485.47;;;17.83;100.00
740;BME280;354;42.694;23.336;2023-05-03T13:22:45;95490.00;;;17.82;100.00
740;BME280;354;42.694;23.336;2023-05-03T13:25:11;95508.47;;;17.94;100.00
740;BME280;354;42.694;23.336;2023-05-03T13:27:37;95507.66;;;17.72;100.00
740;BME280;354;42.694;23.336;2023-05-03T13:30:03;95488.44;;;17.43;100.00
740;BME280;354;42.694;23.336;2023-05-03T13:32:29;95502.22;;;17.39;100.00
740;BME280;354;42.694;23.336;2023-05-03T13:34:55;95525.25;;;17.12;100.00
740;BME280;354;42.694;23.336;2023-05-03T13:37:22;95516.25;;;16.96;100.00
740;BME280;354;42.694;23.336;2023-05-03T13:39:47;95520.84;;;16.67;100.00
740;BME280;354;42.694;23.336;2023-05-03T13:42:13;95519.84;;;16.23;100.00
740;BME280;354;42.694;23.336;2023-05-03T13:44:38;95530.75;;;15.81;100.00
740;BME280;354;42.694;23.336;2023-05-03T13:47:03;95522.13;;;15.62;100.00
740;BME280;354;42.694;23.336;2023-05-03T13:49:29;95544.66;;;15.36;100.00
740;BME280;354;42.694;23.336;2023-05-03T13:51:55;95549.53;;;15.27;100.00
740;BME280;354;42.694;23.336;2023-05-03T13:54:20;95545.16;;;14.98;100.00
740;BME280;354;42.694;23.336;2023-05-03T13:56:46;95555.50;;;14.88;100.00
740;BME280;354;42.694;23.336;2023-05-03T13:59:12;95557.22;;;14.70;100.00
740;BME280;354;42.694;23.336;2023-05-03T14:01:40;95561.34;;;14.55;100.00
740;BME280;354;42.694;23.336;2023-05-03T14:04:07;95553.81;;;14.40;100.00
740;BME280;354;42.694;23.336;2023-05-03T14:06:34;95560.13;;;14.39;100.00
740;BME280;354;42.694;23.336;2023-05-03T14:09:00;95571.41;;;14.34;100.00
740;BME280;354;42.694;23.336;2023-05-03T14:11:25;95520.88;;;13.94;100.00
740;BME280;354;42.694;23.336;2023-05-03T14:13:51;95559.75;;;13.93;100.00
740;BME280;354;42.694;23.336;2023-05-03T14:16:18;95552.13;;;13.85;100.00
740;BME280;354;42.694;23.336;2023-05-03T14:18:45;95554.88;;;13.60;100.00
740;BME280;354;42.694;23.336;2023-05-03T14:21:11;95534.75;;;13.59;100.00
740;BME280;354;42.694;23.336;2023-05-03T14:23:38;95554.72;;;13.55;100.00
740;BME280;354;42.694;23.336;2023-05-03T14:26:05;95559.13;;;13.61;100.00
740;BME280;354;42.694;23.336;2023-05-03T14:28:30;95553.31;;;13.71;100.00
740;BME280;354;42.694;23.336;2023-05-03T14:30:56;95563.00;;;13.95;100.00
740;BME280;354;42.694;23.336;2023-05-03T14:33:21;95562.16;;;14.25;100.00
740;BME280;354;42.694;23.336;2023-05-03T14:35:47;95556.41;;;14.58;100.00
740;BME280;354;42.694;23.336;2023-05-03T14:38:12;95551.13;;;14.58;100.00
740;BME280;354;42.694;23.336;2023-05-03T14:40:39;95552.16;;;14.57;100.00
740;BME280;354;42.694;23.336;2023-05-03T14:43:06;95557.84;;;14.42;100.00
740;BME280;354;42.694;23.336;2023-05-03T14:45:32;95541.00;;;14.25;100.00
740;BME280;354;42.694;23.336;2023-05-03T14:47:58;95538.00;;;14.21;100.00
740;BME280;354;42.694;23.336;2023-05-03T14:50:23;95549.13;;;13.82;100.00
740;BME280;354;42.694;23.336;2023-05-03T14:52:49;95558.84;;;13.69;100.00
740;BME280;354;42.694;23.336;2023-05-03T14:55:14;95546.00;;;13.36;100.00
740;BME280;354;42.694;23.336;2023-05-03T14:57:40;95575.06;;;13.36;100.00
740;BME280;354;42.694;23.336;2023-05-03T15:00:06;95549.94;;;13.27;100.00
740;BME280;354;42.694;23.336;2023-05-03T15:02:38;95542.69;;;13.23;100.00
740;BME280;354;42.694;23.336;2023-05-03T15:05:04;95563.16;;;13.27;100.00
740;BME280;354;42.694;23.336;2023-05-03T15:07:29;95565.53;;;13.10;100.00
740;BME280;354;42.694;23.336;2023-05-03T15:09:55;95569.13;;;12.98;100.00
740;BME280;354;42.694;23.336;2023-05-03T15:12:23;95576.25;;;13.15;100.00
740;BME280;354;42.694;23.336;2023-05-03T15:14:48;95573.47;;;13.10;100.00
740;BME280;354;42.694;23.336;2023-05-03T15:17:13;95593.09;;;13.21;100.00
740;BME280;354;42.694;23.336;2023-05-03T15:19:39;95583.66;;;13.32;100.00
740;BME280;354;42.694;23.336;2023-05-03T15:22:05;95581.38;;;13.35;100.00
740;BME280;354;42.694;23.336;2023-05-03T15:24:30;95584.69;;;13.49;100.00
740;BME280;354;42.694;23.336;2023-05-03T15:26:56;95575.00;;;13.43;100.00
740;BME280;354;42.694;23.336;2023-05-03T15:29:21;95564.19;;;13.44;100.00
740;BME280;354;42.694;23.336;2023-05-03T15:31:47;95537.28;;;13.36;100.00
740;BME280;354;42.694;23.336;2023-05-03T15:34:12;95562.38;;;13.63;100.00
740;BME280;354;42.694;23.336;2023-05-03T15:36:38;95575.94;;;13.67;100.00
740;BME280;354;42.694;23.336;2023-05-03T15:39:04;95584.16;;;13.77;100.00
740;BME280;354;42.694;23.336;2023-05-03T15:41:30;95578.78;;;13.84;100.00
740;BME280;354;42.694;23.336;2023-05-03T15:43:55;95564.66;;;13.90;100.00
740;BME280;354;42.694;23.336;2023-05-03T15:46:21;95555.72;;;13.91;100.00
740;BME280;354;42.694;23.336;2023-05-03T15:48:46;95527.97;;;13.82;100.00
740;BME280;354;42.694;23.336;2023-05-03T15:51:12;95551.50;;;14.02;100.00
740;BME280;354;42.694;23.336;2023-05-03T15:53:37;95552.88;;;14.04;100.00
740;BME280;354;42.694;23.336;2023-05-03T15:56:03;95570.38;;;14.05;100.00
740;BME280;354;42.694;23.336;2023-05-03T15:58:29;95548.63;;;14.03;100.00
740;BME280;354;42.694;23.336;2023-05-03T16:00:55;95549.47;;;14.15;100.00
740;BME280;354;42.694;23.336;2023-05-03T16:03:21;95543.25;;;14.10;100.00
740;BME280;354;42.694;23.336;2023-05-03T16:05:47;95551.72;;;14.00;100.00
740;BME280;354;42.694;23.336;2023-05-03T16:08:12;95548.34;;;13.93;100.00
740;BME280;354;42.694;23.336;2023-05-03T16:10:38;95562.63;;;13.92;100.00
740;BME280;354;42.694;23.336;2023-05-03T16:13:03;95558.13;;;13.92;100.00
740;BME280;354;42.694;23.336;2023-05-03T16:15:29;95548.91;;;13.65;100.00
740;BME280;354;42.694;23.336;2023-05-03T16:17:55;95529.47;;;13.59;100.00
740;BME280;354;42.694;23.336;2023-05-03T16:20:20;95544.06;;;13.80;100.00
740;BME280;354;42.694;23.336;2023-05-03T16:22:46;95548.16;;;13.76;100.00
740;BME280;354;42.694;23.336;2023-05-03T16:25:11;95534.38;;;13.74;100.00
740;BME280;354;42.694;23.336;2023-05-03T16:27:40;95500.91;;;13.68;100.00
740;BME280;354;42.694;23.336;2023-05-03T16:30:06;95518.56;;;13.67;100.00
740;BME280;354;42.694;23.336;2023-05-03T16:32:32;95541.22;;;13.63;100.00
740;BME280;354;42.694;23.336;2023-05-03T16:35:02;95561.41;;;13.58;100.00
740;BME280;354;42.694;23.336;2023-05-03T16:37:31;95565.66;;;13.59;100.00
740;BME280;354;42.694;23.336;2023-05-03T16:39:58;95565.59;;;13.65;100.00
740;BME280;354;42.694;23.336;2023-05-03T16:42:23;95551.03;;;13.56;100.00
740;BME280;354;42.694;23.336;2023-05-03T16:44:49;95541.97;;;13.52;100.00
740;BME280;354;42.694;23.336;2023-05-03T16:47:14;95561.75;;;13.61;100.00
740;BME280;354;42.694;23.336;2023-05-03T16:49:40;95582.34;;;13.59;100.00
740;BME280;354;42.694;23.336;2023-05-03T16:52:05;95582.72;;;13.63;100.00
740;BME280;354;42.694;23.336;2023-05-03T16:54:30;95547.59;;;13.37;100.00
740;BME280;354;42.694;23.336;2023-05-03T16:56:56;95572.03;;;13.51;100.00
740;BME280;354;42.694;23.336;2023-05-03T16:59:21;95570.34;;;13.57;100.00